Time;durP1;ratioP1;P1;durP2;ratioP2;P2;SDS_P1;SDS_P2;PMS_P1;PMS_P2;Temp;Humidity;BMP_temperature;BMP_pressure;BME280_temperature;BME280_humidity;BME280_pressure;Samples;Min_cycle;Max_cycle;Signal;HPM_P1;HPM_P2
2023/09/06 00:00:33;;;;;;;5.18;3.45;;;;;;;24.27;46.93;100949.88;5114109;28;20426;-70
2023/09/06 00:03:03;;;;;;;5.68;3.50;;;;;;;24.27;46.97;100949.03;5114254;28;20055;-70
2023/09/06 00:05:32;;;;;;;6.28;3.58;;;;;;;24.25;47.03;100951.06;5114318;28;20413;-69
2023/09/06 00:08:02;;;;;;;5.38;3.50;;;;;;;24.22;46.90;100951.38;5114354;28;20051;-70
2023/09/06 00:10:30;;;;;;;5.65;3.55;;;;;;;24.20;47.06;100939.78;5115954;28;20048;-71
2023/09/06 00:12:58;;;;;;;5.93;3.40;;;;;;;24.21;46.96;100950.53;5117478;28;20503;-70
2023/09/06 00:15:27;;;;;;;5.93;3.35;;;;;;;24.19;47.06;100951.72;5116966;28;20051;-70
2023/09/06 00:17:56;;;;;;;7.10;3.55;;;;;;;24.17;47.44;100948.31;5114420;28;20047;-70
2023/09/06 00:20:30;;;;;;;5.70;3.50;;;;;;;24.16;47.10;100938.41;5114172;28;20051;-70
2023/09/06 00:22:59;;;;;;;5.47;3.53;;;;;;;24.13;47.20;100936.88;5113946;28;20089;-70
2023/09/06 00:25:29;;;;;;;5.55;3.55;;;;;;;24.13;47.36;100941.47;5113575;28;20053;-70
2023/09/06 00:28:00;;;;;;;5.80;3.40;;;;;;;24.09;47.29;100935.47;5113934;28;20048;-69
2023/09/06 00:30:29;;;;;;;5.43;3.40;;;;;;;24.09;47.38;100938.22;5113707;28;20044;-70
2023/09/06 00:32:59;;;;;;;5.40;3.78;;;;;;;24.06;47.22;100935.81;5113468;28;20052;-70
2023/09/06 00:35:28;;;;;;;5.53;3.25;;;;;;;24.06;47.55;100935.81;5113622;28;20461;-69
2023/09/06 00:37:56;;;;;;;5.57;3.50;;;;;;;24.05;47.48;100936.00;5113641;28;20043;-69
2023/09/06 00:40:25;;;;;;;7.18;3.20;;;;;;;24.01;47.43;100935.44;5112269;28;20036;-69
2023/09/06 00:42:59;;;;;;;5.70;3.58;;;;;;;24.00;47.43;100936.47;5113412;28;20039;-70
2023/09/06 00:45:29;;;;;;;5.00;3.35;;;;;;;23.98;47.50;100939.34;5093255;28;20044;-70
2023/09/06 00:48:01;;;;;;;5.20;3.42;;;;;;;23.95;47.48;100936.97;5105101;28;20051;-70
2023/09/06 00:50:30;;;;;;;6.95;3.05;;;;;;;23.92;47.65;100936.41;5113120;28;20054;-70
2023/09/06 00:53:00;;;;;;;5.30;3.25;;;;;;;23.92;47.71;100940.00;5112858;28;20066;-70
2023/09/06 00:55:28;;;;;;;6.35;3.35;;;;;;;23.92;47.63;100939.13;5113261;28;20091;-69
2023/09/06 00:57:56;;;;;;;4.82;3.25;;;;;;;23.90;47.58;100942.03;5112901;28;20055;-70
2023/09/06 01:00:25;;;;;;;4.72;3.22;;;;;;;23.87;47.60;100939.63;5102654;28;20146;-69
2023/09/06 01:02:53;;;;;;;6.18;3.35;;;;;;;23.87;47.73;100936.06;5113280;28;20088;-70
2023/09/06 01:05:22;;;;;;;4.68;3.28;;;;;;;23.86;47.91;100937.09;5112636;28;20085;-69
2023/09/06 01:07:55;;;;;;;5.28;3.47;;;;;;;23.82;47.76;100928.34;5113315;28;20071;-69
2023/09/06 01:10:22;;;;;;;;;;;;;;;23.83;47.72;100935.50;5113153;28;20055;-70
2023/09/06 01:12:53;;;;;;;5.68;3.55;;;;;;;23.82;47.78;100935.69;5112710;28;19967;-70
2023/09/06 01:15:22;;;;;;;4.75;3.28;;;;;;;23.81;47.90;100940.28;5112833;28;20463;-70
2023/09/06 01:17:52;;;;;;;5.95;3.85;;;;;;;23.79;48.00;100939.59;5112830;28;20040;-70
2023/09/06 01:20:33;;;;;;;5.20;3.38;;;;;;;23.77;48.25;100936.19;5112562;28;20443;-70
2023/09/06 01:23:10;;;;;;;5.13;3.50;;;;;;;23.75;47.98;100940.94;5112750;28;20137;-69
2023/09/06 01:25:43;;;;;;;5.82;3.35;;;;;;;23.76;48.01;100945.38;5092146;28;20401;-69
2023/09/06 01:28:11;;;;;;;5.32;3.35;;;;;;;23.73;47.93;100945.66;5111483;28;20047;-69
2023/09/06 01:30:39;;;;;;;4.95;3.20;;;;;;;23.69;48.00;100939.69;5112613;28;20040;-69
2023/09/06 01:33:07;;;;;;;5.28;3.67;;;;;;;23.69;48.21;100941.56;5112728;28;20130;-69
2023/09/06 01:35:36;;;;;;;5.45;3.38;;;;;;;23.67;48.22;100936.28;5112339;28;20050;-70
2023/09/06 01:38:04;;;;;;;5.95;3.55;;;;;;;23.65;48.32;100934.75;5112490;28;20428;-70
2023/09/06 01:40:35;;;;;;;6.15;3.45;;;;;;;23.65;48.11;100945.63;5112487;28;20050;-70
2023/09/06 01:43:05;;;;;;;5.72;3.47;;;;;;;23.63;48.23;100950.38;5112059;28;20449;-69
2023/09/06 01:45:35;;;;;;;6.28;3.50;;;;;;;23.62;48.31;100951.38;5112462;28;20139;-69
2023/09/06 01:48:03;;;;;;;5.65;3.25;;;;;;;23.60;48.18;100943.38;5112179;28;20126;-69
2023/09/06 01:50:32;;;;;;;5.65;3.28;;;;;;;23.59;48.36;100943.53;5112275;28;20051;-69
2023/09/06 01:53:00;;;;;;;6.85;3.15;;;;;;;23.57;48.19;100940.09;5111523;28;20116;-69
2023/09/06 01:55:28;;;;;;;6.43;3.80;;;;;;;23.56;48.24;100949.28;5112401;28;20096;-70
2023/09/06 01:57:56;;;;;;;6.68;3.65;;;;;;;23.55;48.23;100947.59;5112135;28;20048;-69
2023/09/06 02:00:27;;;;;;;6.32;3.53;;;;;;;23.53;48.25;100947.72;5112238;28;20125;-70
2023/09/06 02:02:56;;;;;;;5.18;3.50;;;;;;;23.52;48.31;100953.31;5112066;28;20428;-69
2023/09/06 02:05:24;;;;;;;5.97;3.20;;;;;;;23.50;48.33;100947.19;5111893;28;20093;-69
2023/09/06 02:07:52;;;;;;;5.78;3.40;;;;;;;23.48;48.33;100946.50;5112172;28;20442;-69
2023/09/06 02:10:20;;;;;;;5.43;3.63;;;;;;;23.48;48.34;100946.50;5111424;28;20060;-69
2023/09/06 02:12:48;;;;;;;5.72;3.47;;;;;;;23.47;48.30;100942.06;5111668;28;20051;-69
2023/09/06 02:15:17;;;;;;;5.93;3.25;;;;;;;23.45;48.34;100941.34;5111790;28;20051;-70
2023/09/06 02:17:46;;;;;;;4.78;3.35;;;;;;;23.40;48.47;100937.25;5111842;28;20054;-70
2023/09/06 02:20:19;;;;;;;5.07;3.42;;;;;;;23.40;48.53;100939.13;5112103;28;20048;-69
2023/09/06 02:22:51;;;;;;;7.32;3.58;;;;;;;23.41;48.45;100947.13;5111908;28;20101;-69
2023/09/06 02:25:25;;;;;;;5.82;3.53;;;;;;;23.38;48.36;100942.00;5112044;28;20043;-69
2023/09/06 02:27:53;;;;;;;6.25;3.50;;;;;;;23.36;48.58;100941.31;5111943;28;20403;-71
2023/09/06 02:30:22;;;;;;;6.15;3.47;;;;;;;23.35;48.51;100941.44;5111561;28;20047;-70
2023/09/06 02:32:52;;;;;;;4.60;3.17;;;;;;;23.33;48.48;100938.88;5111580;28;20062;-69
2023/09/06 02:35:20;;;;;;;6.32;3.75;;;;;;;23.30;48.73;100939.22;5111569;28;20455;-70
2023/09/06 02:37:49;;;;;;;5.80;3.60;;;;;;;23.31;48.71;100937.34;5111393;28;20431;-69
2023/09/06 02:40:20;;;;;;;6.43;3.80;;;;;;;23.29;48.65;100936.66;5111472;28;20055;-69
2023/09/06 02:42:51;;;;;;;6.25;3.60;;;;;;;23.26;48.83;100936.94;5111521;28;20057;-69
2023/09/06 02:45:22;;;;;;;6.93;3.70;;;;;;;23.25;48.65;100932.53;5111646;28;20076;-69
2023/09/06 02:47:52;;;;;;;6.75;3.30;;;;;;;23.25;48.67;100941.53;5111724;28;20085;-70
2023/09/06 02:50:23;;;;;;;5.60;3.40;;;;;;;23.23;48.76;100945.44;5111551;28;20082;-69
2023/09/06 02:52:53;;;;;;;5.72;3.40;;;;;;;23.21;48.85;100948.31;5111249;28;20131;-70
2023/09/06 02:55:23;;;;;;;6.22;3.25;;;;;;;23.20;48.61;100946.63;5111436;28;20055;-70
2023/09/06 02:57:52;;;;;;;5.45;3.28;;;;;;;23.19;48.81;100930.44;5111194;28;20702;-69
2023/09/06 03:00:24;;;;;;;6.57;3.47;;;;;;;23.17;48.84;100937.94;5111288;28;20043;-69
2023/09/06 03:02:59;;;;;;;5.85;3.88;;;;;;;23.16;48.68;100938.91;5111466;28;20122;-69
2023/09/06 03:05:28;;;;;;;5.35;3.45;;;;;;;23.14;48.81;100937.19;5114517;28;20043;-69
2023/09/06 03:07:56;;;;;;;5.72;3.67;;;;;;;23.11;48.84;100933.94;5115048;28;20067;-69
2023/09/06 03:10:24;;;;;;;5.18;3.67;;;;;;;23.11;48.72;100936.69;5114706;28;20520;-69
2023/09/06 03:12:57;;;;;;;5.88;3.63;;;;;;;23.07;49.03;100936.16;5114799;28;20047;-69
2023/09/06 03:15:28;;;;;;;6.50;3.85;;;;;;;23.08;48.75;100939.72;5114866;28;20040;-69
2023/09/06 03:17:59;;;;;;;6.00;3.42;;;;;;;23.07;48.72;100938.88;5114853;28;20489;-69
2023/09/06 03:20:33;;;;;;;5.32;3.30;;;;;;;23.06;48.79;100937.13;5114952;28;20054;-69
2023/09/06 03:23:09;;;;;;;5.65;3.30;;;;;;;23.03;48.86;100937.44;5097854;28;20163;-69
2023/09/06 03:25:40;;;;;;;5.25;3.13;;;;;;;23.01;49.03;100941.34;5114978;28;20047;-69
2023/09/06 03:28:08;;;;;;;5.78;3.33;;;;;;;23.01;49.01;100946.78;5115093;28;20044;-69
2023/09/06 03:30:38;;;;;;;7.30;3.90;;;;;;;23.00;49.02;100936.91;5114804;28;20066;-69
2023/09/06 03:33:08;;;;;;;6.35;3.42;;;;;;;22.98;49.10;100933.50;5097483;28;20488;-69
2023/09/06 03:35:37;;;;;;;4.90;3.25;;;;;;;22.95;48.94;100933.78;5114582;28;20151;-70
2023/09/06 03:38:08;;;;;;;5.47;3.25;;;;;;;22.95;49.10;100940.09;5114850;28;20096;-69
2023/09/06 03:40:37;;;;;;;5.63;3.60;;;;;;;22.93;48.92;100950.28;5114445;28;20071;-69
2023/09/06 03:43:11;;;;;;;5.22;3.40;;;;;;;22.92;48.99;100945.84;5114604;28;20406;-70
2023/09/06 03:45:42;;;;;;;6.00;3.40;;;;;;;22.92;49.06;100934.97;5114489;28;20097;-70
2023/09/06 03:48:12;;;;;;;7.68;3.50;;;;;;;22.88;49.16;100938.19;5114683;28;20412;-69
2023/09/06 03:50:41;;;;;;;5.20;3.50;;;;;;;22.91;48.92;100946.00;5114323;28;20058;-70
2023/09/06 03:53:09;;;;;;;5.75;3.50;;;;;;;22.88;49.27;100954.50;5115094;28;20044;-71
2023/09/06 03:55:38;;;;;;;6.30;3.53;;;;;;;22.87;49.42;100953.59;5097949;28;20043;-69
2023/09/06 03:58:07;;;;;;;5.50;3.70;;;;;;;22.87;49.18;100960.91;5114446;28;20102;-69
2023/09/06 04:00:39;;;;;;;5.53;3.53;;;;;;;22.84;49.36;100957.50;5114131;28;20492;-70
2023/09/06 04:03:08;;;;;;;5.28;3.58;;;;;;;22.82;49.13;100961.34;5114005;28;20127;-69
2023/09/06 04:05:40;;;;;;;7.50;3.90;;;;;;;22.82;49.45;100962.22;5114142;28;20123;-69
2023/09/06 04:08:09;;;;;;;5.10;3.30;;;;;;;22.81;49.28;100955.06;5114159;28;20043;-70
2023/09/06 04:10:38;;;;;;;6.95;3.65;;;;;;;22.80;49.27;100953.38;5114008;28;20052;-69
2023/09/06 04:13:07;;;;;;;6.38;3.60;;;;;;;22.79;49.50;100951.66;5113808;28;20044;-69
2023/09/06 04:15:37;;;;;;;6.18;3.47;;;;;;;22.77;49.44;100953.66;5113408;28;20432;-69
2023/09/06 04:18:07;;;;;;;6.55;3.30;;;;;;;22.76;49.52;100951.09;5113843;28;20044;-69
2023/09/06 04:20:36;;;;;;;7.40;3.88;;;;;;;22.75;49.38;100961.13;5113647;28;20040;-69
2023/09/06 04:23:07;;;;;;;8.27;3.95;;;;;;;22.74;49.47;100964.00;5113868;28;20565;-69
2023/09/06 04:25:41;;;;;;;6.72;3.50;;;;;;;22.72;49.66;100969.59;5113410;28;20411;-70
2023/09/06 04:28:10;;;;;;;7.95;3.80;;;;;;;22.72;49.47;100964.16;5097369;28;20039;-69
2023/09/06 04:30:41;;;;;;;7.07;3.97;;;;;;;22.70;49.47;100974.34;5113759;28;20040;-69
2023/09/06 04:33:12;;;;;;;8.10;3.72;;;;;;;22.71;49.42;100975.19;5113430;28;20061;-69
2023/09/06 04:35:45;;;;;;;7.78;3.97;;;;;;;22.67;49.66;100974.63;5113494;28;20073;-69
2023/09/06 04:38:17;;;;;;;7.22;4.13;;;;;;;22.65;49.67;100979.34;5097023;28;20088;-69
2023/09/06 04:40:47;;;;;;;6.33;3.50;;;;;;;22.65;49.51;100981.22;5113103;28;20050;-69
2023/09/06 04:43:16;;;;;;;6.57;3.80;;;;;;;22.65;49.65;100992.09;5113577;28;20055;-69
2023/09/06 04:45:46;;;;;;;6.65;3.95;;;;;;;22.62;49.50;100985.09;5113077;28;20047;-70
2023/09/06 04:48:17;;;;;;;6.68;3.67;;;;;;;22.63;49.74;100994.13;5113210;28;20043;-69
2023/09/06 04:50:47;;;;;;;5.60;3.60;;;;;;;22.60;49.78;100984.41;5113191;28;20126;-70
2023/09/06 04:53:19;;;;;;;7.30;3.88;;;;;;;22.61;49.79;100983.41;5112940;28;20082;-70
2023/09/06 04:55:49;;;;;;;7.93;3.92;;;;;;;22.61;49.75;100988.00;5113680;28;20048;-70
2023/09/06 04:58:18;;;;;;;9.27;4.30;;;;;;;22.59;49.74;100990.88;5112882;28;20496;-69
2023/09/06 05:00:48;;;;;;;5.57;3.72;;;;;;;22.58;49.74;100991.84;5113040;28;20055;-70
2023/09/06 05:03:18;;;;;;;6.03;3.83;;;;;;;22.57;49.55;100993.72;5112563;28;20047;-69
2023/09/06 05:05:48;;;;;;;6.90;3.70;;;;;;;22.56;49.83;100988.44;5112591;28;20058;-69
2023/09/06 05:08:19;;;;;;;6.55;3.70;;;;;;;22.55;49.79;100997.59;5113036;28;20040;-68
2023/09/06 05:10:51;;;;;;;8.75;3.85;;;;;;;22.55;49.66;101005.75;5112488;28;20055;-70
2023/09/06 05:13:19;;;;;;;6.47;4.07;;;;;;;22.53;49.87;101005.06;5112594;28;20043;-69
2023/09/06 05:16:03;;;;;;;8.38;4.15;;;;;;;22.54;49.68;101001.31;5112586;28;20058;-70
2023/09/06 05:18:31;;;;;;;6.90;3.72;;;;;;;22.53;50.05;100995.03;5112616;28;20131;-70
2023/09/06 05:21:02;;;;;;;7.22;4.18;;;;;;;22.51;49.79;100996.19;5112329;28;20082;-70
2023/09/06 05:23:35;;;;;;;6.70;4.25;;;;;;;22.51;50.03;101001.63;5112531;28;20086;-69
2023/09/06 05:26:05;;;;;;;8.52;4.10;;;;;;;22.50;49.83;101006.22;5112029;28;20095;-69
2023/09/06 05:28:33;;;;;;;6.00;3.85;;;;;;;22.49;50.12;101004.50;5111702;28;20054;-69
2023/09/06 05:31:03;;;;;;;7.85;4.40;;;;;;;22.50;49.75;100999.94;5112293;28;20054;-69
2023/09/06 05:33:31;;;;;;;8.30;4.10;;;;;;;22.51;50.02;101001.63;5111611;28;20526;-69
2023/09/06 05:35:59;;;;;;;6.00;3.85;;;;;;;22.51;50.01;101001.63;5112085;28;20454;-70
2023/09/06 05:38:28;;;;;;;5.70;3.50;;;;;;;22.50;49.94;100997.22;5093683;28;20051;-68
2023/09/06 05:41:01;;;;;;;8.93;4.00;;;;;;;22.50;49.81;101006.22;5111950;28;20516;-69
2023/09/06 05:43:32;;;;;;;6.93;3.92;;;;;;;22.49;50.03;101001.78;5111760;28;20043;-70
2023/09/06 05:46:02;;;;;;;7.50;3.85;;;;;;;22.50;49.88;101002.66;5091506;28;20051;-69
2023/09/06 05:48:44;;;;;;;7.60;4.05;;;;;;;22.51;49.98;101012.50;5076246;28;20044;-70
2023/09/06 05:51:12;;;;;;;8.05;3.78;;;;;;;22.49;50.09;101003.66;5111944;28;20404;-70
2023/09/06 05:53:41;;;;;;;7.53;3.88;;;;;;;22.50;50.15;101002.66;5111706;28;20044;-71
2023/09/06 05:56:11;;;;;;;7.53;3.80;;;;;;;22.51;49.93;101005.22;5111603;28;20055;-69
2023/09/06 05:58:39;;;;;;;6.28;3.78;;;;;;;22.51;50.10;101007.06;5093195;28;20549;-69
2023/09/06 06:01:08;;;;;;;5.78;3.90;;;;;;;22.52;49.97;101000.63;5110892;28;20085;-69
2023/09/06 06:03:37;;;;;;;6.57;3.53;;;;;;;22.52;50.15;101004.19;5112113;28;20040;-70
2023/09/06 06:06:10;;;;;;;7.47;3.60;;;;;;;22.49;50.08;100998.22;5112379;28;20134;-69
2023/09/06 06:08:39;;;;;;;6.25;3.35;;;;;;;22.52;50.25;101004.19;5112261;28;20048;-69
2023/09/06 06:11:08;;;;;;;6.55;4.00;;;;;;;22.51;50.27;101007.94;5111844;28;20123;-69
2023/09/06 06:13:40;;;;;;;6.28;3.70;;;;;;;22.52;50.08;101009.63;5112187;28;20086;-69
2023/09/06 06:16:15;;;;;;;8.73;4.07;;;;;;;22.53;50.15;101005.06;5093985;28;20479;-70
2023/09/06 06:18:43;;;;;;;8.88;3.97;;;;;;;22.54;50.21;101013.06;5112020;28;20048;-70
2023/09/06 06:21:12;;;;;;;6.00;3.53;;;;;;;22.55;50.01;101013.91;5111610;28;20050;-69
2023/09/06 06:23:43;;;;;;;8.00;3.80;;;;;;;22.53;50.11;101010.50;5112005;28;20051;-69
2023/09/06 06:26:12;;;;;;;7.07;3.47;;;;;;;22.55;50.23;101019.34;5111816;28;20051;-70
2023/09/06 06:28:41;;;;;;;7.38;3.42;;;;;;;22.56;50.02;101015.63;5111620;28;20393;-70
2023/09/06 06:31:11;;;;;;;5.60;3.60;;;;;;;22.57;49.94;101025.47;5111497;28;20040;-70
2023/09/06 06:33:39;;;;;;;8.45;4.18;;;;;;;22.56;50.01;101021.06;5111238;28;20044;-70
2023/09/06 06:36:11;;;;;;;7.80;3.50;;;;;;;22.57;50.04;101022.75;5111705;28;20048;-70
2023/09/06 06:38:40;;;;;;;7.07;3.70;;;;;;;22.57;50.07;101020.03;5113307;28;20087;-70
2023/09/06 06:41:18;;;;;;;7.25;3.67;;;;;;;22.57;50.41;101023.63;5115736;28;20051;-70
2023/09/06 06:43:48;;;;;;;7.18;3.47;;;;;;;22.57;50.15;101020.03;5115696;28;20397;-71
2023/09/06 06:46:28;;;;;;;6.70;3.50;;;;;;;22.57;50.00;101028.19;5097728;28;20183;-71
2023/09/06 06:48:57;;;;;;;7.63;3.58;;;;;;;22.60;50.37;101032.50;5115415;28;20496;-71
2023/09/06 06:51:26;;;;;;;6.45;3.63;;;;;;;22.61;50.08;101035.06;5115965;28;20071;-71
2023/09/06 06:53:54;;;;;;;6.00;3.97;;;;;;;22.58;50.07;101035.34;5115275;28;20097;-71
2023/09/06 06:56:23;;;;;;;6.30;3.47;;;;;;;22.61;49.93;101035.06;5115361;28;20087;-69
2023/09/06 06:58:53;;;;;;;7.35;3.45;;;;;;;22.63;49.97;101043.06;5115573;28;20043;-70
2023/09/06 07:01:24;;;;;;;6.57;3.47;;;;;;;22.63;49.88;101035.75;5096992;28;20043;-69
2023/09/06 07:03:52;;;;;;;8.07;3.63;;;;;;;22.63;49.95;101040.34;5115423;28;20058;-69
2023/09/06 07:06:21;;;;;;;6.38;3.15;;;;;;;22.64;49.64;101034.75;5115271;28;20511;-69
2023/09/06 07:08:49;;;;;;;5.63;3.38;;;;;;;22.66;49.76;101038.16;5115262;28;20138;-69
2023/09/06 07:11:17;;;;;;;7.40;3.45;;;;;;;22.65;49.67;101031.03;5115004;28;20056;-70
2023/09/06 07:13:48;;;;;;;7.45;3.22;;;;;;;22.67;49.72;101028.16;5115427;28;20130;-69
2023/09/06 07:16:22;;;;;;;7.30;3.17;;;;;;;22.70;49.48;101033.31;5114924;28;20083;-70
2023/09/06 07:18:51;;;;;;;6.70;3.63;;;;;;;22.70;49.80;101028.72;5115100;28;20051;-70
2023/09/06 07:21:19;;;;;;;8.07;3.67;;;;;;;22.71;49.56;101027.72;5114889;28;20040;-70
2023/09/06 07:23:49;;;;;;;7.82;3.58;;;;;;;22.73;49.78;101028.41;5114758;28;20130;-69
2023/09/06 07:26:17;;;;;;;6.40;3.20;;;;;;;22.70;49.73;101015.13;5114948;28;20411;-70
2023/09/06 07:28:49;;;;;;;6.78;3.70;;;;;;;22.75;49.63;101018.22;5115018;28;20043;-70
2023/09/06 07:31:18;;;;;;;7.63;3.45;;;;;;;22.74;49.78;101015.66;5114952;28;20047;-70
2023/09/06 07:33:47;;;;;;;6.90;3.40;;;;;;;22.77;49.72;101018.06;5114596;28;20139;-70
2023/09/06 07:36:15;;;;;;;6.47;3.67;;;;;;;22.77;49.64;101024.34;5114383;28;20116;-70
2023/09/06 07:38:44;;;;;;;7.05;3.55;;;;;;;22.78;49.67;101017.94;5114422;28;20043;-70
2023/09/06 07:41:13;;;;;;;5.53;3.30;;;;;;;22.79;49.39;101016.94;5114284;28;20073;-70
2023/09/06 07:43:41;;;;;;;6.95;3.33;;;;;;;22.81;49.33;101023.06;5114278;28;20070;-70
2023/09/06 07:46:12;;;;;;;4.53;3.10;;;;;;;22.81;49.40;101025.78;5114987;28;20051;-70
2023/09/06 07:48:42;;;;;;;6.28;3.10;;;;;;;22.83;49.45;101023.75;5114377;28;20506;-70
2023/09/06 07:51:12;;;;;;;4.70;3.17;;;;;;;22.84;49.37;101020.06;5112876;28;20055;-70
2023/09/06 07:53:41;;;;;;;6.88;3.22;;;;;;;22.87;49.04;101026.19;5114525;28;20109;-70
2023/09/06 07:56:10;;;;;;;6.13;3.05;;;;;;;22.87;49.62;101020.75;5114330;28;20109;-69
2023/09/06 07:58:38;;;;;;;4.97;3.10;;;;;;;22.89;49.37;101021.47;5114107;28;20132;-70
2023/09/06 08:01:10;;;;;;;5.80;3.17;;;;;;;22.91;49.56;101022.19;5114103;28;20051;-70
2023/09/06 08:03:48;;;;;;;5.93;3.00;;;;;;;22.90;49.40;101023.19;5114481;28;20051;-70
2023/09/06 08:06:18;;;;;;;6.70;3.20;;;;;;;22.92;49.43;101026.59;5114376;28;20044;-70
2023/09/06 08:08:47;;;;;;;5.38;3.28;;;;;;;22.94;49.45;101035.47;5096204;28;20047;-69
2023/09/06 08:11:18;;;;;;;5.35;3.30;;;;;;;22.95;49.55;101037.16;5114018;28;20106;-70
2023/09/06 08:13:47;;;;;;;6.32;3.13;;;;;;;22.95;49.41;101034.44;5113977;28;20055;-70
2023/09/06 08:16:19;;;;;;;4.40;2.88;;;;;;;22.97;49.29;101040.59;5113864;28;20055;-70
2023/09/06 08:18:48;;;;;;;5.17;3.23;;;;;;;22.98;49.38;101036.88;5114113;28;20054;-70
2023/09/06 08:21:17;;;;;;;5.47;3.28;;;;;;;22.99;49.37;101034.00;5114076;28;20079;-69
2023/09/06 08:23:45;;;;;;;4.55;3.17;;;;;;;23.02;49.24;101032.84;5113840;28;20046;-69
2023/09/06 08:26:13;;;;;;;5.90;2.85;;;;;;;23.04;49.23;101030.81;5114327;28;20135;-70
2023/09/06 08:28:42;;;;;;;4.90;3.03;;;;;;;23.05;49.30;101029.78;5113425;28;20043;-70
2023/09/06 08:31:10;;;;;;;5.55;3.03;;;;;;;23.07;49.40;101035.97;5113734;28;20146;-70
2023/09/06 08:33:40;;;;;;;5.38;3.35;;;;;;;23.08;49.32;101037.66;5113661;28;20438;-69
2023/09/06 08:36:10;;;;;;;7.22;3.40;;;;;;;23.08;49.31;101033.09;5113539;28;20055;-70
2023/09/06 08:38:39;;;;;;;7.60;3.50;;;;;;;23.10;49.58;101027.47;5113387;28;20794;-70
2023/09/06 08:41:08;;;;;;;5.63;3.25;;;;;;;23.14;49.32;101031.59;5113472;28;20044;-70
2023/09/06 08:43:42;;;;;;;4.75;3.00;;;;;;;23.16;49.45;101028.72;5113713;28;20097;-70
2023/09/06 08:46:19;;;;;;;8.35;3.40;;;;;;;23.17;49.45;101025.88;5113206;28;20416;-69
2023/09/06 08:48:49;;;;;;;5.28;2.92;;;;;;;23.18;49.43;101024.84;5113110;28;20039;-69
2023/09/06 08:51:21;;;;;;;5.70;3.17;;;;;;;23.18;49.56;101016.69;5113161;28;20059;-69
2023/09/06 08:53:50;;;;;;;6.28;3.35;;;;;;;23.22;49.43;101019.94;5113042;28;20051;-70
2023/09/06 08:56:19;;;;;;;6.35;3.28;;;;;;;23.23;49.32;101018.91;5113282;28;20415;-70
2023/09/06 08:58:47;;;;;;;5.32;3.30;;;;;;;23.24;49.49;101021.47;5113345;28;20074;-69
2023/09/06 09:01:21;;;;;;;7.00;3.38;;;;;;;23.26;48.95;101008.59;5112377;28;20058;-70
2023/09/06 09:03:50;;;;;;;6.43;3.25;;;;;;;23.29;49.27;101013.72;5112760;28;20104;-70
2023/09/06 09:06:20;;;;;;;8.15;3.17;;;;;;;23.30;49.52;101022.75;5112816;28;20047;-70
2023/09/06 09:08:49;;;;;;;6.72;3.10;;;;;;;23.32;49.41;101015.28;5113168;28;20138;-70
2023/09/06 09:11:19;;;;;;;5.78;3.15;;;;;;;23.34;49.29;101016.81;5112580;28;20087;-71
2023/09/06 09:13:48;;;;;;;6.40;3.20;;;;;;;23.36;49.39;101020.25;5113388;28;20055;-69
2023/09/06 09:16:17;;;;;;;6.22;3.28;;;;;;;23.38;49.24;101020.94;5113178;28;20082;-69
2023/09/06 09:18:47;;;;;;;5.88;3.35;;;;;;;23.40;49.15;101021.66;5095139;28;20043;-69
2023/09/06 09:21:16;;;;;;;6.07;3.28;;;;;;;23.40;49.14;101016.19;5112841;28;20051;-69
2023/09/06 09:23:47;;;;;;;5.35;3.10;;;;;;;23.43;48.97;101009.56;5112982;28;20039;-69
2023/09/06 09:26:19;;;;;;;7.03;3.13;;;;;;;23.47;48.90;101016.44;5112652;28;20131;-69
2023/09/06 09:28:51;;;;;;;5.85;3.28;;;;;;;23.49;48.95;100999.94;5112583;28;20043;-70
2023/09/06 09:31:19;;;;;;;6.20;3.13;;;;;;;23.51;48.90;101006.94;5112500;28;20082;-69
2023/09/06 09:33:51;;;;;;;5.75;2.85;;;;;;;23.51;48.96;101000.63;5112649;28;20074;-69
2023/09/06 09:36:20;;;;;;;4.85;3.42;;;;;;;23.54;48.87;101001.16;5112608;28;20047;-70
2023/09/06 09:38:50;;;;;;;5.45;3.20;;;;;;;23.54;48.81;100989.41;5112380;28;20047;-69
2023/09/06 09:41:19;;;;;;;5.88;3.10;;;;;;;23.57;48.96;100997.28;5112244;28;20079;-70
2023/09/06 09:43:48;;;;;;;6.32;3.30;;;;;;;23.61;48.93;100998.69;5112146;28;20044;-69
2023/09/06 09:46:28;;;;;;;5.53;3.00;;;;;;;23.63;48.78;100993.94;5112214;28;20075;-69
2023/09/06 09:49:01;;;;;;;5.95;3.10;;;;;;;23.64;48.91;100985.63;5112240;28;20111;-69
2023/09/06 09:51:33;;;;;;;6.03;3.15;;;;;;;23.68;48.81;100987.00;5112153;28;20097;-69
2023/09/06 09:54:04;;;;;;;6.05;3.00;;;;;;;23.72;48.78;100993.00;5111935;28;20070;-69
2023/09/06 09:56:34;;;;;;;6.78;3.10;;;;;;;23.74;48.71;100990.09;5112237;28;20416;-69
2023/09/06 09:59:04;;;;;;;7.00;3.35;;;;;;;23.77;48.54;100982.47;5112134;28;20047;-70
2023/09/06 10:01:32;;;;;;;6.18;3.10;;;;;;;23.80;48.66;100987.59;5112055;28;20122;-69
2023/09/06 10:04:05;;;;;;;7.05;3.00;;;;;;;23.83;48.39;100984.53;5111796;28;20550;-70
2023/09/06 10:06:34;;;;;;;5.47;3.00;;;;;;;23.87;48.41;100980.50;5112036;28;20047;-69
2023/09/06 10:09:12;;;;;;;6.47;3.13;;;;;;;23.88;48.33;100976.75;5111828;28;20051;-70
2023/09/06 10:11:42;;;;;;;4.93;3.03;;;;;;;23.92;48.38;100972.69;5111780;28;20571;-69
2023/09/06 10:14:12;;;;;;;5.68;2.90;;;;;;;23.95;48.36;100977.84;5093920;28;20051;-71
2023/09/06 10:16:42;;;;;;;5.00;2.85;;;;;;;23.99;48.34;100978.34;5111912;28;20139;-70
2023/09/06 10:19:11;;;;;;;5.63;3.05;;;;;;;24.04;48.29;100970.56;5111707;28;20071;-69
2023/09/06 10:21:41;;;;;;;6.82;2.92;;;;;;;24.08;48.19;100971.06;5111964;28;20077;-68
2023/09/06 10:24:19;;;;;;;6.95;2.95;;;;;;;24.13;47.88;100968.75;5111849;28;20056;-70
2023/09/06 10:26:48;;;;;;;5.93;2.90;;;;;;;24.17;47.86;100975.56;5111816;28;20135;-69
2023/09/06 10:29:20;;;;;;;5.05;2.90;;;;;;;24.20;48.09;100964.31;5111907;28;20043;-70
2023/09/06 10:31:49;;;;;;;4.13;2.83;;;;;;;24.26;47.94;100966.41;5111602;28;20054;-70
2023/09/06 10:34:21;;;;;;;4.97;2.88;;;;;;;24.29;47.75;100968.78;5111827;28;20044;-69
2023/09/06 10:36:55;;;;;;;5.10;2.60;;;;;;;24.35;47.63;100967.31;5111357;28;20055;-68
2023/09/06 10:39:27;;;;;;;4.38;2.72;;;;;;;24.40;47.38;100963.06;5111571;28;20048;-69
2023/09/06 10:42:28;;;;;;;5.25;2.80;;;;;;;24.46;47.26;100969.75;5111583;28;20047;-69
2023/09/06 10:45:09;;;;;;;6.55;2.92;;;;;;;24.51;47.28;100965.53;5111772;28;20059;-69
2023/09/06 10:47:38;;;;;;;4.50;2.80;;;;;;;24.57;46.79;100971.31;5111377;28;20131;-69
2023/09/06 10:50:12;;;;;;;4.40;2.40;;;;;;;24.63;44.97;100965.22;5112022;28;20050;-70
2023/09/06 10:52:43;;;;;;;5.18;3.05;;;;;;;24.69;44.53;100959.06;5111607;28;20500;-68
2023/09/06 10:55:25;;;;;;;4.93;2.67;;;;;;;24.75;44.48;100955.69;5111793;28;20396;-69
2023/09/06 10:58:06;;;;;;;4.80;2.70;;;;;;;24.78;44.76;100941.69;5111727;28;20051;-68
2023/09/06 11:00:35;;;;;;;5.85;2.75;;;;;;;24.85;44.59;100953.66;5111342;28;20408;-67
2023/09/06 11:03:21;;;;;;;4.45;2.70;;;;;;;24.90;44.33;100956.75;5111286;28;20083;-67
2023/09/06 11:05:55;;;;;;;5.93;2.65;;;;;;;24.94;44.60;100951.78;5111450;28;20048;-69
2023/09/06 11:08:29;;;;;;;4.50;2.92;;;;;;;24.97;44.82;100941.38;5111318;28;20106;-69
2023/09/06 11:11:09;;;;;;;4.88;2.60;;;;;;;25.04;44.69;100947.06;5111241;28;20171;-69
2023/09/06 11:13:38;;;;;;;4.30;2.60;;;;;;;25.08;44.47;100945.69;5111179;28;20134;-68
2023/09/06 11:16:12;;;;;;;4.78;2.60;;;;;;;25.12;44.44;100933.44;5111536;28;20505;-68
2023/09/06 11:18:45;;;;;;;4.75;2.75;;;;;;;25.17;44.93;100941.94;5112282;28;20102;-69
2023/09/06 11:21:18;;;;;;;5.00;2.85;;;;;;;25.23;44.77;100940.41;5111219;28;20499;-69
2023/09/06 11:23:48;;;;;;;4.13;2.60;;;;;;;25.27;44.44;100933.56;5111319;28;20047;-68
2023/09/06 11:26:20;;;;;;;5.40;2.72;;;;;;;25.35;44.10;100933.56;5113658;28;20071;-68
2023/09/06 11:28:59;;;;;;;4.65;2.95;;;;;;;25.39;44.27;100934.97;5114707;28;20044;-69
2023/09/06 11:31:33;;;;;;;4.75;2.78;;;;;;;25.45;44.31;100927.94;5114724;28;20048;-68
2023/09/06 11:34:04;;;;;;;4.47;2.70;;;;;;;25.50;44.26;100920.94;5114776;28;20052;-68
2023/09/06 11:36:36;;;;;;;5.13;2.75;;;;;;;25.53;44.16;100920.59;5114660;28;20086;-69
2023/09/06 11:39:18;;;;;;;4.72;2.60;;;;;;;25.61;44.08;100917.84;5114624;28;20100;-68